sensor_id;sensor_type;location;lat;lon;timestamp;P1;durP1;ratioP1;P2;durP2;ratioP2
22111;SDS011;11222;50.872;4.312;2023-07-24T00:00:59;13.63;;;8.10;;
22111;SDS011;11222;50.872;4.312;2023-07-24T00:03:24;14.27;;;8.63;;
22111;SDS011;11222;50.872;4.312;2023-07-24T00:05:50;16.02;;;8.85;;
22111;SDS011;11222;50.872;4.312;2023-07-24T00:08:16;13.25;;;8.05;;
22111;SDS011;11222;50.872;4.312;2023-07-24T00:10:41;14.98;;;8.15;;
22111;SDS011;11222;50.872;4.312;2023-07-24T00:13:07;14.25;;;8.90;;
22111;SDS011;11222;50.872;4.312;2023-07-24T00:15:32;15.45;;;8.95;;
22111;SDS011;11222;50.872;4.312;2023-07-24T00:17:58;19.05;;;9.60;;
22111;SDS011;11222;50.872;4.312;2023-07-24T00:20:24;16.08;;;9.75;;
22111;SDS011;11222;50.872;4.312;2023-07-24T00:22:51;22.30;;;9.82;;
22111;SDS011;11222;50.872;4.312;2023-07-24T00:25:16;15.00;;;9.15;;
22111;SDS011;11222;50.872;4.312;2023-07-24T00:27:42;19.88;;;9.57;;
22111;SDS011;11222;50.872;4.312;2023-07-24T00:30:08;17.40;;;9.13;;
22111;SDS011;11222;50.872;4.312;2023-07-24T00:32:34;15.80;;;8.55;;
22111;SDS011;11222;50.872;4.312;2023-07-24T00:34:59;19.75;;;9.77;;
22111;SDS011;11222;50.872;4.312;2023-07-24T00:37:25;17.95;;;8.73;;
22111;SDS011;11222;50.872;4.312;2023-07-24T00:39:51;18.30;;;8.98;;
22111;SDS011;11222;50.872;4.312;2023-07-24T00:42:16;14.88;;;8.63;;
22111;SDS011;11222;50.872;4.312;2023-07-24T00:44:42;17.88;;;8.73;;
22111;SDS011;11222;50.872;4.312;2023-07-24T00:47:07;15.30;;;8.70;;
22111;SDS011;11222;50.872;4.312;2023-07-24T00:49:34;15.13;;;9.27;;
22111;SDS011;11222;50.872;4.312;2023-07-24T00:52:00;15.07;;;9.27;;
22111;SDS011;11222;50.872;4.312;2023-07-24T00:54:26;16.75;;;9.23;;
22111;SDS011;11222;50.872;4.312;2023-07-24T00:56:53;18.05;;;9.43;;
22111;SDS011;11222;50.872;4.312;2023-07-24T00:59:19;18.40;;;9.32;;
22111;SDS011;11222;50.872;4.312;2023-07-24T01:01:45;15.52;;;9.30;;
22111;SDS011;11222;50.872;4.312;2023-07-24T01:04:12;20.60;;;9.55;;
22111;SDS011;11222;50.872;4.312;2023-07-24T01:06:39;18.08;;;9.63;;
22111;SDS011;11222;50.872;4.312;2023-07-24T01:09:05;17.17;;;9.48;;
22111;SDS011;11222;50.872;4.312;2023-07-24T01:11:38;14.05;;;8.77;;
22111;SDS011;11222;50.872;4.312;2023-07-24T01:14:10;18.45;;;9.25;;
22111;SDS011;11222;50.872;4.312;2023-07-24T01:16:42;15.60;;;8.57;;
22111;SDS011;11222;50.872;4.312;2023-07-24T01:19:26;14.48;;;8.57;;
22111;SDS011;11222;50.872;4.312;2023-07-24T01:22:14;18.45;;;9.65;;
22111;SDS011;11222;50.872;4.312;2023-07-24T01:27:31;14.05;;;8.20;;
22111;SDS011;11222;50.872;4.312;2023-07-24T01:29:57;21.40;;;9.52;;
22111;SDS011;11222;50.872;4.312;2023-07-24T01:32:23;12.05;;;8.20;;
22111;SDS011;11222;50.872;4.312;2023-07-24T01:34:49;10.77;;;6.70;;
22111;SDS011;11222;50.872;4.312;2023-07-24T01:37:15;10.13;;;6.82;;
22111;SDS011;11222;50.872;4.312;2023-07-24T01:39:42;9.35;;;5.20;;
22111;SDS011;11222;50.872;4.312;2023-07-24T01:42:09;6.85;;;4.45;;
22111;SDS011;11222;50.872;4.312;2023-07-24T01:44:35;7.10;;;3.90;;
22111;SDS011;11222;50.872;4.312;2023-07-24T01:47:01;5.68;;;3.13;;
22111;SDS011;11222;50.872;4.312;2023-07-24T01:49:27;5.15;;;3.47;;
22111;SDS011;11222;50.872;4.312;2023-07-24T01:51:52;3.72;;;3.20;;
22111;SDS011;11222;50.872;4.312;2023-07-24T01:54:18;3.60;;;2.50;;
22111;SDS011;11222;50.872;4.312;2023-07-24T01:56:43;3.00;;;2.70;;
22111;SDS011;11222;50.872;4.312;2023-07-24T01:59:09;2.88;;;2.58;;
22111;SDS011;11222;50.872;4.312;2023-07-24T02:01:35;4.55;;;2.40;;
22111;SDS011;11222;50.872;4.312;2023-07-24T02:04:01;3.75;;;2.50;;
22111;SDS011;11222;50.872;4.312;2023-07-24T02:06:27;3.10;;;2.38;;
22111;SDS011;11222;50.872;4.312;2023-07-24T02:08:52;3.30;;;2.30;;
22111;SDS011;11222;50.872;4.312;2023-07-24T02:11:18;3.75;;;2.60;;
22111;SDS011;11222;50.872;4.312;2023-07-24T02:13:44;2.60;;;2.13;;
22111;SDS011;11222;50.872;4.312;2023-07-24T02:16:10;3.35;;;2.40;;
22111;SDS011;11222;50.872;4.312;2023-07-24T02:18:37;2.50;;;2.30;;
22111;SDS011;11222;50.872;4.312;2023-07-24T02:21:04;4.70;;;2.60;;
22111;SDS011;11222;50.872;4.312;2023-07-24T02:23:29;3.92;;;2.38;;
22111;SDS011;11222;50.872;4.312;2023-07-24T02:25:55;3.65;;;2.60;;
22111;SDS011;11222;50.872;4.312;2023-07-24T02:28:20;3.80;;;2.38;;
22111;SDS011;11222;50.872;4.312;2023-07-24T02:30:47;3.00;;;2.30;;
22111;SDS011;11222;50.872;4.312;2023-07-24T02:33:13;6.15;;;3.13;;
22111;SDS011;11222;50.872;4.312;2023-07-24T02:35:39;7.25;;;3.50;;
22111;SDS011;11222;50.872;4.312;2023-07-24T02:38:05;3.58;;;2.45;;
22111;SDS011;11222;50.872;4.312;2023-07-24T02:40:31;4.45;;;2.60;;
22111;SDS011;11222;50.872;4.312;2023-07-24T02:42:57;3.33;;;2.50;;
22111;SDS011;11222;50.872;4.312;2023-07-24T02:45:23;2.65;;;2.38;;
22111;SDS011;11222;50.872;4.312;2023-07-24T02:47:48;4.90;;;2.90;;
22111;SDS011;11222;50.872;4.312;2023-07-24T02:50:14;3.58;;;2.58;;
22111;SDS011;11222;50.872;4.312;2023-07-24T02:52:40;2.70;;;2.40;;
22111;SDS011;11222;50.872;4.312;2023-07-24T02:55:05;5.38;;;2.50;;
22111;SDS011;11222;50.872;4.312;2023-07-24T02:57:31;3.83;;;2.50;;
22111;SDS011;11222;50.872;4.312;2023-07-24T02:59:57;3.15;;;2.58;;
22111;SDS011;11222;50.872;4.312;2023-07-24T03:02:22;3.00;;;2.70;;
22111;SDS011;11222;50.872;4.312;2023-07-24T03:04:48;2.92;;;2.63;;
22111;SDS011;11222;50.872;4.312;2023-07-24T03:07:14;3.35;;;2.60;;
22111;SDS011;11222;50.872;4.312;2023-07-24T03:09:39;3.63;;;2.60;;
22111;SDS011;11222;50.872;4.312;2023-07-24T03:12:05;3.50;;;2.95;;
22111;SDS011;11222;50.872;4.312;2023-07-24T03:14:31;3.70;;;2.80;;
22111;SDS011;11222;50.872;4.312;2023-07-24T03:16:56;4.00;;;3.08;;
22111;SDS011;11222;50.872;4.312;2023-07-24T03:19:22;3.15;;;2.85;;
22111;SDS011;11222;50.872;4.312;2023-07-24T03:21:48;4.70;;;3.20;;
22111;SDS011;11222;50.872;4.312;2023-07-24T03:24:13;2.97;;;2.58;;
22111;SDS011;11222;50.872;4.312;2023-07-24T03:26:39;3.83;;;2.75;;
22111;SDS011;11222;50.872;4.312;2023-07-24T03:29:05;3.95;;;3.15;;
22111;SDS011;11222;50.872;4.312;2023-07-24T03:31:30;4.35;;;2.92;;
22111;SDS011;11222;50.872;4.312;2023-07-24T03:33:56;3.50;;;3.15;;
22111;SDS011;11222;50.872;4.312;2023-07-24T03:36:22;4.53;;;3.35;;
22111;SDS011;11222;50.872;4.312;2023-07-24T03:38:47;3.20;;;2.90;;
22111;SDS011;11222;50.872;4.312;2023-07-24T03:41:13;3.90;;;3.28;;
22111;SDS011;11222;50.872;4.312;2023-07-24T03:43:39;3.80;;;3.47;;
22111;SDS011;11222;50.872;4.312;2023-07-24T03:46:04;3.28;;;2.63;;
22111;SDS011;11222;50.872;4.312;2023-07-24T03:48:30;3.97;;;3.35;;
22111;SDS011;11222;50.872;4.312;2023-07-24T03:50:59;4.20;;;2.90;;
22111;SDS011;11222;50.872;4.312;2023-07-24T03:53:25;3.50;;;2.90;;
22111;SDS011;11222;50.872;4.312;2023-07-24T03:55:51;3.10;;;2.63;;
22111;SDS011;11222;50.872;4.312;2023-07-24T03:58:17;3.05;;;2.70;;
22111;SDS011;11222;50.872;4.312;2023-07-24T04:00:42;3.08;;;2.78;;
22111;SDS011;11222;50.872;4.312;2023-07-24T04:03:08;3.40;;;3.10;;
22111;SDS011;11222;50.872;4.312;2023-07-24T04:05:35;3.13;;;2.63;;
22111;SDS011;11222;50.872;4.312;2023-07-24T04:08:01;4.40;;;3.10;;
22111;SDS011;11222;50.872;4.312;2023-07-24T04:10:27;2.95;;;2.63;;
22111;SDS011;11222;50.872;4.312;2023-07-24T04:12:54;2.90;;;2.60;;
22111;SDS011;11222;50.872;4.312;2023-07-24T04:15:19;3.47;;;3.00;;
22111;SDS011;11222;50.872;4.312;2023-07-24T04:17:45;3.85;;;2.95;;
22111;SDS011;11222;50.872;4.312;2023-07-24T04:20:11;3.55;;;3.25;;
22111;SDS011;11222;50.872;4.312;2023-07-24T04:22:36;3.22;;;2.90;;
22111;SDS011;11222;50.872;4.312;2023-07-24T04:25:04;4.85;;;2.70;;
22111;SDS011;11222;50.872;4.312;2023-07-24T04:27:30;4.68;;;3.10;;
22111;SDS011;11222;50.872;4.312;2023-07-24T04:29:55;4.53;;;2.78;;
22111;SDS011;11222;50.872;4.312;2023-07-24T04:32:21;2.92;;;2.63;;
22111;SDS011;11222;50.872;4.312;2023-07-24T04:34:47;4.63;;;2.70;;
22111;SDS011;11222;50.872;4.312;2023-07-24T04:37:12;3.40;;;3.10;;
22111;SDS011;11222;50.872;4.312;2023-07-24T04:39:38;3.08;;;2.78;;
22111;SDS011;11222;50.872;4.312;2023-07-24T04:42:04;5.00;;;2.72;;
22111;SDS011;11222;50.872;4.312;2023-07-24T04:44:30;4.43;;;2.78;;
22111;SDS011;11222;50.872;4.312;2023-07-24T04:46:57;2.90;;;2.58;;
22111;SDS011;11222;50.872;4.312;2023-07-24T04:49:23;3.90;;;2.63;;
22111;SDS011;11222;50.872;4.312;2023-07-24T04:51:49;3.05;;;2.70;;
22111;SDS011;11222;50.872;4.312;2023-07-24T04:54:16;5.15;;;3.28;;
22111;SDS011;11222;50.872;4.312;2023-07-24T04:56:42;3.63;;;2.63;;
22111;SDS011;11222;50.872;4.312;2023-07-24T04:59:08;3.03;;;2.60;;
22111;SDS011;11222;50.872;4.312;2023-07-24T05:01:33;3.05;;;2.50;;
22111;SDS011;11222;50.872;4.312;2023-07-24T05:03:59;6.45;;;3.42;;
22111;SDS011;11222;50.872;4.312;2023-07-24T05:06:24;10.65;;;3.20;;
22111;SDS011;11222;50.872;4.312;2023-07-24T05:08:52;3.45;;;3.15;;
22111;SDS011;11222;50.872;4.312;2023-07-24T05:11:18;3.20;;;2.90;;
22111;SDS011;11222;50.872;4.312;2023-07-24T05:13:44;3.67;;;3.28;;
22111;SDS011;11222;50.872;4.312;2023-07-24T05:16:09;4.20;;;3.00;;
22111;SDS011;11222;50.872;4.312;2023-07-24T05:18:35;6.30;;;2.83;;
22111;SDS011;11222;50.872;4.312;2023-07-24T05:21:01;3.03;;;2.70;;
22111;SDS011;11222;50.872;4.312;2023-07-24T05:23:26;4.88;;;3.15;;
22111;SDS011;11222;50.872;4.312;2023-07-24T05:25:56;3.28;;;2.70;;
22111;SDS011;11222;50.872;4.312;2023-07-24T05:28:28;3.55;;;2.70;;
22111;SDS011;11222;50.872;4.312;2023-07-24T05:31:00;3.97;;;3.00;;
22111;SDS011;11222;50.872;4.312;2023-07-24T05:33:29;3.15;;;2.70;;
22111;SDS011;11222;50.872;4.312;2023-07-24T05:35:59;2.97;;;2.75;;
22111;SDS011;11222;50.872;4.312;2023-07-24T05:38:28;3.50;;;3.00;;
22111;SDS011;11222;50.872;4.312;2023-07-24T05:40:58;3.28;;;2.83;;
22111;SDS011;11222;50.872;4.312;2023-07-24T05:43:24;5.15;;;3.20;;
22111;SDS011;11222;50.872;4.312;2023-07-24T05:45:51;6.22;;;3.67;;
22111;SDS011;11222;50.872;4.312;2023-07-24T05:48:17;4.10;;;3.70;;
22111;SDS011;11222;50.872;4.312;2023-07-24T05:50:43;3.40;;;3.10;;
22111;SDS011;11222;50.872;4.312;2023-07-24T05:53:08;5.03;;;3.30;;
22111;SDS011;11222;50.872;4.312;2023-07-24T05:55:34;3.92;;;3.53;;
22111;SDS011;11222;50.872;4.312;2023-07-24T05:58:00;5.07;;;4.03;;
22111;SDS011;11222;50.872;4.312;2023-07-24T06:00:25;5.38;;;3.30;;
22111;SDS011;11222;50.872;4.312;2023-07-24T06:02:52;4.88;;;3.55;;
22111;SDS011;11222;50.872;4.312;2023-07-24T06:05:18;5.00;;;3.70;;
22111;SDS011;11222;50.872;4.312;2023-07-24T06:07:45;5.45;;;3.50;;
22111;SDS011;11222;50.872;4.312;2023-07-24T06:10:11;9.68;;;6.35;;
22111;SDS011;11222;50.872;4.312;2023-07-24T06:12:37;6.97;;;4.13;;
22111;SDS011;11222;50.872;4.312;2023-07-24T06:15:03;5.75;;;3.58;;
22111;SDS011;11222;50.872;4.312;2023-07-24T06:17:29;5.90;;;4.20;;
22111;SDS011;11222;50.872;4.312;2023-07-24T06:19:55;4.30;;;3.90;;
22111;SDS011;11222;50.872;4.312;2023-07-24T06:22:21;4.35;;;3.78;;
22111;SDS011;11222;50.872;4.312;2023-07-24T06:24:47;5.53;;;4.05;;
22111;SDS011;11222;50.872;4.312;2023-07-24T06:27:13;5.25;;;3.60;;
22111;SDS011;11222;50.872;4.312;2023-07-24T06:29:39;4.45;;;3.63;;
22111;SDS011;11222;50.872;4.312;2023-07-24T06:32:04;5.45;;;3.90;;
22111;SDS011;11222;50.872;4.312;2023-07-24T06:34:30;7.68;;;4.05;;
22111;SDS011;11222;50.872;4.312;2023-07-24T06:36:57;5.53;;;3.92;;
22111;SDS011;11222;50.872;4.312;2023-07-24T06:39:22;6.80;;;4.00;;
22111;SDS011;11222;50.872;4.312;2023-07-24T06:41:48;6.97;;;3.72;;
22111;SDS011;11222;50.872;4.312;2023-07-24T06:44:16;6.88;;;4.13;;
22111;SDS011;11222;50.872;4.312;2023-07-24T06:46:41;6.68;;;4.07;;
22111;SDS011;11222;50.872;4.312;2023-07-24T06:49:07;3.70;;;3.40;;
22111;SDS011;11222;50.872;4.312;2023-07-24T06:51:33;4.38;;;3.60;;
22111;SDS011;11222;50.872;4.312;2023-07-24T06:53:58;5.70;;;3.70;;
22111;SDS011;11222;50.872;4.312;2023-07-24T06:56:24;8.48;;;3.47;;
22111;SDS011;11222;50.872;4.312;2023-07-24T06:58:49;4.88;;;3.58;;
22111;SDS011;11222;50.872;4.312;2023-07-24T07:01:15;5.82;;;3.88;;
22111;SDS011;11222;50.872;4.312;2023-07-24T07:03:41;7.68;;;4.15;;
22111;SDS011;11222;50.872;4.312;2023-07-24T07:06:06;6.93;;;4.05;;
22111;SDS011;11222;50.872;4.312;2023-07-24T07:08:34;5.47;;;3.63;;
22111;SDS011;11222;50.872;4.312;2023-07-24T07:11:00;4.85;;;3.30;;
22111;SDS011;11222;50.872;4.312;2023-07-24T07:13:26;5.38;;;3.45;;
22111;SDS011;11222;50.872;4.312;2023-07-24T07:15:52;5.90;;;3.30;;
22111;SDS011;11222;50.872;4.312;2023-07-24T07:18:18;6.00;;;3.50;;
22111;SDS011;11222;50.872;4.312;2023-07-24T07:20:47;5.35;;;4.13;;
22111;SDS011;11222;50.872;4.312;2023-07-24T07:23:14;3.85;;;3.22;;
22111;SDS011;11222;50.872;4.312;2023-07-24T07:25:40;7.78;;;3.50;;
22111;SDS011;11222;50.872;4.312;2023-07-24T07:28:08;6.35;;;3.78;;
22111;SDS011;11222;50.872;4.312;2023-07-24T07:30:34;3.75;;;3.40;;
22111;SDS011;11222;50.872;4.312;2023-07-24T07:33:00;4.13;;;3.53;;
22111;SDS011;11222;50.872;4.312;2023-07-24T07:35:26;4.05;;;3.60;;
22111;SDS011;11222;50.872;4.312;2023-07-24T07:37:51;6.40;;;4.20;;
22111;SDS011;11222;50.872;4.312;2023-07-24T07:40:17;4.78;;;3.38;;
22111;SDS011;11222;50.872;4.312;2023-07-24T07:42:43;4.32;;;3.78;;
22111;SDS011;11222;50.872;4.312;2023-07-24T07:45:10;4.85;;;3.75;;
22111;SDS011;11222;50.872;4.312;2023-07-24T07:47:36;4.60;;;3.70;;
22111;SDS011;11222;50.872;4.312;2023-07-24T07:50:02;5.45;;;3.85;;
22111;SDS011;11222;50.872;4.312;2023-07-24T07:52:28;5.63;;;3.38;;
22111;SDS011;11222;50.872;4.312;2023-07-24T07:54:53;3.67;;;3.33;;
22111;SDS011;11222;50.872;4.312;2023-07-24T07:57:19;4.07;;;3.67;;
22111;SDS011;11222;50.872;4.312;2023-07-24T07:59:44;5.03;;;3.60;;
22111;SDS011;11222;50.872;4.312;2023-07-24T08:02:10;5.25;;;3.80;;
22111;SDS011;11222;50.872;4.312;2023-07-24T08:04:36;4.10;;;3.53;;
22111;SDS011;11222;50.872;4.312;2023-07-24T08:07:01;7.50;;;3.78;;
22111;SDS011;11222;50.872;4.312;2023-07-24T08:09:27;5.93;;;3.42;;
22111;SDS011;11222;50.872;4.312;2023-07-24T08:11:53;5.78;;;3.58;;
22111;SDS011;11222;50.872;4.312;2023-07-24T08:14:19;9.10;;;4.28;;
22111;SDS011;11222;50.872;4.312;2023-07-24T08:16:44;9.63;;;4.18;;
22111;SDS011;11222;50.872;4.312;2023-07-24T08:19:13;5.68;;;3.88;;
22111;SDS011;11222;50.872;4.312;2023-07-24T08:21:38;4.55;;;3.70;;
22111;SDS011;11222;50.872;4.312;2023-07-24T08:24:05;6.07;;;4.03;;
22111;SDS011;11222;50.872;4.312;2023-07-24T08:26:31;4.70;;;3.25;;
22111;SDS011;11222;50.872;4.312;2023-07-24T08:28:57;4.82;;;3.80;;
22111;SDS011;11222;50.872;4.312;2023-07-24T08:31:22;4.00;;;3.65;;
22111;SDS011;11222;50.872;4.312;2023-07-24T08:33:48;6.30;;;4.13;;
22111;SDS011;11222;50.872;4.312;2023-07-24T08:36:14;5.35;;;3.88;;
22111;SDS011;11222;50.872;4.312;2023-07-24T08:38:40;4.35;;;3.92;;
22111;SDS011;11222;50.872;4.312;2023-07-24T08:43:37;5.07;;;3.72;;
22111;SDS011;11222;50.872;4.312;2023-07-24T08:46:04;4.20;;;3.53;;
22111;SDS011;11222;50.872;4.312;2023-07-24T08:48:37;4.45;;;3.40;;
22111;SDS011;11222;50.872;4.312;2023-07-24T08:51:05;6.03;;;3.92;;
22111;SDS011;11222;50.872;4.312;2023-07-24T08:53:41;5.35;;;3.88;;
22111;SDS011;11222;50.872;4.312;2023-07-24T08:56:08;4.50;;;3.70;;
22111;SDS011;11222;50.872;4.312;2023-07-24T08:58:35;5.68;;;3.92;;
22111;SDS011;11222;50.872;4.312;2023-07-24T09:01:02;7.68;;;4.07;;
22111;SDS011;11222;50.872;4.312;2023-07-24T09:03:28;6.53;;;4.07;;
22111;SDS011;11222;50.872;4.312;2023-07-24T09:05:56;4.63;;;4.10;;
22111;SDS011;11222;50.872;4.312;2023-07-24T09:08:55;5.78;;;4.40;;
22111;SDS011;11222;50.872;4.312;2023-07-24T09:11:14;4.43;;;3.97;;
22111;SDS011;11222;50.872;4.312;2023-07-24T09:13:43;6.97;;;4.18;;
22111;SDS011;11222;50.872;4.312;2023-07-24T09:16:09;5.28;;;4.30;;
22111;SDS011;11222;50.872;4.312;2023-07-24T09:18:45;6.97;;;4.13;;
22111;SDS011;11222;50.872;4.312;2023-07-24T09:21:11;4.97;;;3.78;;
22111;SDS011;11222;50.872;4.312;2023-07-24T09:23:39;5.80;;;3.95;;
22111;SDS011;11222;50.872;4.312;2023-07-24T09:26:06;5.40;;;4.32;;
22111;SDS011;11222;50.872;4.312;2023-07-24T09:28:33;6.60;;;4.30;;
22111;SDS011;11222;50.872;4.312;2023-07-24T09:30:59;6.18;;;3.80;;
22111;SDS011;11222;50.872;4.312;2023-07-24T09:33:41;7.57;;;4.45;;
22111;SDS011;11222;50.872;4.312;2023-07-24T09:36:08;4.72;;;3.70;;
22111;SDS011;11222;50.872;4.312;2023-07-24T09:38:38;5.22;;;3.80;;
22111;SDS011;11222;50.872;4.312;2023-07-24T09:41:05;7.65;;;4.07;;
22111;SDS011;11222;50.872;4.312;2023-07-24T09:43:32;6.40;;;3.97;;
22111;SDS011;11222;50.872;4.312;2023-07-24T09:46:00;8.63;;;4.70;;
22111;SDS011;11222;50.872;4.312;2023-07-24T09:48:27;6.60;;;4.57;;
22111;SDS011;11222;50.872;4.312;2023-07-24T09:50:54;6.53;;;4.82;;
22111;SDS011;11222;50.872;4.312;2023-07-24T09:53:21;6.90;;;4.15;;
22111;SDS011;11222;50.872;4.312;2023-07-24T09:56:02;7.35;;;4.93;;
22111;SDS011;11222;50.872;4.312;2023-07-24T09:58:33;6.00;;;4.85;;
22111;SDS011;11222;50.872;4.312;2023-07-24T10:01:04;5.88;;;4.38;;
22111;SDS011;11222;50.872;4.312;2023-07-24T10:03:32;6.05;;;4.90;;
22111;SDS011;11222;50.872;4.312;2023-07-24T10:05:59;7.05;;;4.85;;
22111;SDS011;11222;50.872;4.312;2023-07-24T10:08:26;4.53;;;4.00;;
22111;SDS011;11222;50.872;4.312;2023-07-24T10:10:52;6.50;;;4.40;;
22111;SDS011;11222;50.872;4.312;2023-07-24T10:13:18;5.40;;;4.35;;
22111;SDS011;11222;50.872;4.312;2023-07-24T10:15:46;6.35;;;4.40;;
22111;SDS011;11222;50.872;4.312;2023-07-24T10:18:14;5.13;;;3.92;;
22111;SDS011;11222;50.872;4.312;2023-07-24T10:20:42;4.00;;;3.60;;
22111;SDS011;11222;50.872;4.312;2023-07-24T10:23:08;4.70;;;3.90;;
22111;SDS011;11222;50.872;4.312;2023-07-24T10:25:37;4.47;;;3.75;;
22111;SDS011;11222;50.872;4.312;2023-07-24T10:28:06;4.75;;;3.88;;
22111;SDS011;11222;50.872;4.312;2023-07-24T10:30:36;5.32;;;4.18;;
22111;SDS011;11222;50.872;4.312;2023-07-24T10:33:18;4.68;;;4.13;;
22111;SDS011;11222;50.872;4.312;2023-07-24T10:35:47;6.43;;;4.60;;
22111;SDS011;11222;50.872;4.312;2023-07-24T10:38:16;5.38;;;4.50;;
22111;SDS011;11222;50.872;4.312;2023-07-24T10:40:45;4.88;;;4.03;;
22111;SDS011;11222;50.872;4.312;2023-07-24T10:43:14;5.05;;;4.55;;
22111;SDS011;11222;50.872;4.312;2023-07-24T10:45:50;6.15;;;4.40;;
22111;SDS011;11222;50.872;4.312;2023-07-24T10:48:17;5.18;;;4.68;;
22111;SDS011;11222;50.872;4.312;2023-07-24T10:50:46;7.72;;;6.70;;
22111;SDS011;11222;50.872;4.312;2023-07-24T10:53:16;5.57;;;3.88;;
22111;SDS011;11222;50.872;4.312;2023-07-24T10:55:43;4.47;;;4.07;;
22111;SDS011;11222;50.872;4.312;2023-07-24T10:58:09;6.20;;;4.40;;
22111;SDS011;11222;50.872;4.312;2023-07-24T11:00:37;5.05;;;4.55;;
22111;SDS011;11222;50.872;4.312;2023-07-24T11:03:04;5.30;;;4.45;;
22111;SDS011;11222;50.872;4.312;2023-07-24T11:05:32;5.70;;;4.93;;
22111;SDS011;11222;50.872;4.312;2023-07-24T11:07:58;4.97;;;4.47;;
22111;SDS011;11222;50.872;4.312;2023-07-24T11:10:23;5.82;;;4.45;;
22111;SDS011;11222;50.872;4.312;2023-07-24T11:12:49;7.93;;;4.70;;
22111;SDS011;11222;50.872;4.312;2023-07-24T11:15:23;6.25;;;5.25;;
22111;SDS011;11222;50.872;4.312;2023-07-24T11:17:53;6.47;;;4.82;;
22111;SDS011;11222;50.872;4.312;2023-07-24T11:20:19;5.05;;;4.55;;
22111;SDS011;11222;50.872;4.312;2023-07-24T11:22:45;5.20;;;4.40;;
22111;SDS011;11222;50.872;4.312;2023-07-24T11:25:11;6.03;;;4.47;;
22111;SDS011;11222;50.872;4.312;2023-07-24T11:27:40;6.07;;;4.70;;
22111;SDS011;11222;50.872;4.312;2023-07-24T11:30:09;5.80;;;5.20;;
22111;SDS011;11222;50.872;4.312;2023-07-24T11:32:37;5.32;;;4.80;;
22111;SDS011;11222;50.872;4.312;2023-07-24T11:35:04;6.10;;;5.03;;
22111;SDS011;11222;50.872;4.312;2023-07-24T11:37:30;8.75;;;5.38;;
22111;SDS011;11222;50.872;4.312;2023-07-24T11:40:00;8.25;;;5.18;;
22111;SDS011;11222;50.872;4.312;2023-07-24T11:42:34;6.32;;;4.68;;
22111;SDS011;11222;50.872;4.312;2023-07-24T11:45:02;6.88;;;5.03;;
22111;SDS011;11222;50.872;4.312;2023-07-24T11:47:28;6.75;;;5.10;;
22111;SDS011;11222;50.872;4.312;2023-07-24T11:50:00;6.45;;;4.70;;
22111;SDS011;11222;50.872;4.312;2023-07-24T11:52:37;7.65;;;4.88;;
22111;SDS011;11222;50.872;4.312;2023-07-24T11:55:04;4.90;;;4.38;;
22111;SDS011;11222;50.872;4.312;2023-07-24T11:57:30;5.07;;;4.57;;
22111;SDS011;11222;50.872;4.312;2023-07-24T11:59:55;5.38;;;4.45;;
22111;SDS011;11222;50.872;4.312;2023-07-24T12:02:27;7.03;;;5.25;;
22111;SDS011;11222;50.872;4.312;2023-07-24T12:04:54;4.57;;;4.07;;
22111;SDS011;11222;50.872;4.312;2023-07-24T12:07:23;7.25;;;4.50;;
22111;SDS011;11222;50.872;4.312;2023-07-24T12:09:54;5.30;;;4.43;;
22111;SDS011;11222;50.872;4.312;2023-07-24T12:12:19;4.97;;;4.55;;
22111;SDS011;11222;50.872;4.312;2023-07-24T12:14:45;5.03;;;4.53;;
22111;SDS011;11222;50.872;4.312;2023-07-24T12:17:11;6.43;;;4.97;;
22111;SDS011;11222;50.872;4.312;2023-07-24T12:19:42;4.82;;;4.43;;
22111;SDS011;11222;50.872;4.312;2023-07-24T12:22:08;4.78;;;4.38;;
22111;SDS011;11222;50.872;4.312;2023-07-24T12:24:33;4.85;;;4.30;;
22111;SDS011;11222;50.872;4.312;2023-07-24T12:26:59;5.80;;;4.55;;
22111;SDS011;11222;50.872;4.312;2023-07-24T12:29:25;4.88;;;4.35;;
22111;SDS011;11222;50.872;4.312;2023-07-24T12:31:51;5.05;;;4.47;;
22111;SDS011;11222;50.872;4.312;2023-07-24T12:34:16;7.03;;;4.30;;
22111;SDS011;11222;50.872;4.312;2023-07-24T12:36:42;4.82;;;4.40;;
22111;SDS011;11222;50.872;4.312;2023-07-24T12:39:08;6.63;;;4.75;;
22111;SDS011;11222;50.872;4.312;2023-07-24T12:41:34;6.60;;;4.40;;
22111;SDS011;11222;50.872;4.312;2023-07-24T12:43:59;7.03;;;4.43;;
22111;SDS011;11222;50.872;4.312;2023-07-24T12:46:25;5.93;;;4.55;;
22111;SDS011;11222;50.872;4.312;2023-07-24T12:48:51;6.78;;;4.90;;
22111;SDS011;11222;50.872;4.312;2023-07-24T12:51:16;4.97;;;4.20;;
22111;SDS011;11222;50.872;4.312;2023-07-24T12:53:42;5.05;;;4.18;;
22111;SDS011;11222;50.872;4.312;2023-07-24T12:56:07;7.10;;;4.28;;
22111;SDS011;11222;50.872;4.312;2023-07-24T12:58:33;6.13;;;4.30;;
22111;SDS011;11222;50.872;4.312;2023-07-24T13:00:59;5.70;;;4.47;;
22111;SDS011;11222;50.872;4.312;2023-07-24T13:03:24;6.85;;;4.38;;
22111;SDS011;11222;50.872;4.312;2023-07-24T13:05:50;5.90;;;4.15;;
22111;SDS011;11222;50.872;4.312;2023-07-24T13:08:16;4.53;;;4.10;;
22111;SDS011;11222;50.872;4.312;2023-07-24T13:10:41;4.88;;;4.40;;
22111;SDS011;11222;50.872;4.312;2023-07-24T13:13:07;6.07;;;4.22;;
22111;SDS011;11222;50.872;4.312;2023-07-24T13:15:34;4.90;;;4.28;;
22111;SDS011;11222;50.872;4.312;2023-07-24T13:17:59;8.43;;;4.85;;
22111;SDS011;11222;50.872;4.312;2023-07-24T13:20:25;5.28;;;4.60;;
22111;SDS011;11222;50.872;4.312;2023-07-24T13:22:51;7.07;;;4.80;;
22111;SDS011;11222;50.872;4.312;2023-07-24T13:25:16;5.45;;;4.35;;
22111;SDS011;11222;50.872;4.312;2023-07-24T13:27:42;6.03;;;4.68;;
22111;SDS011;11222;50.872;4.312;2023-07-24T13:30:08;5.88;;;4.50;;
22111;SDS011;11222;50.872;4.312;2023-07-24T13:32:34;7.28;;;4.55;;
22111;SDS011;11222;50.872;4.312;2023-07-24T13:34:59;4.35;;;3.70;;
22111;SDS011;11222;50.872;4.312;2023-07-24T13:37:25;5.75;;;4.20;;
22111;SDS011;11222;50.872;4.312;2023-07-24T13:39:51;4.97;;;4.40;;
22111;SDS011;11222;50.872;4.312;2023-07-24T13:42:16;7.75;;;4.72;;
22111;SDS011;11222;50.872;4.312;2023-07-24T13:44:42;7.35;;;5.30;;
22111;SDS011;11222;50.872;4.312;2023-07-24T13:47:08;6.68;;;4.15;;
22111;SDS011;11222;50.872;4.312;2023-07-24T13:49:33;5.70;;;4.57;;
22111;SDS011;11222;50.872;4.312;2023-07-24T13:51:59;6.63;;;4.75;;
22111;SDS011;11222;50.872;4.312;2023-07-24T13:54:25;5.30;;;4.38;;
22111;SDS011;11222;50.872;4.312;2023-07-24T13:56:50;5.25;;;4.30;;
22111;SDS011;11222;50.872;4.312;2023-07-24T13:59:17;5.07;;;3.95;;
22111;SDS011;11222;50.872;4.312;2023-07-24T14:01:43;6.75;;;3.88;;
22111;SDS011;11222;50.872;4.312;2023-07-24T14:04:09;7.03;;;4.30;;
22111;SDS011;11222;50.872;4.312;2023-07-24T14:06:37;5.43;;;4.25;;
22111;SDS011;11222;50.872;4.312;2023-07-24T14:09:02;5.82;;;4.00;;
22111;SDS011;11222;50.872;4.312;2023-07-24T14:11:28;4.40;;;3.88;;
22111;SDS011;11222;50.872;4.312;2023-07-24T14:13:54;4.80;;;4.00;;
22111;SDS011;11222;50.872;4.312;2023-07-24T14:16:20;4.47;;;4.07;;
22111;SDS011;11222;50.872;4.312;2023-07-24T14:18:45;5.78;;;4.43;;
22111;SDS011;11222;50.872;4.312;2023-07-24T14:21:11;5.40;;;4.10;;
22111;SDS011;11222;50.872;4.312;2023-07-24T14:23:36;5.45;;;4.10;;
22111;SDS011;11222;50.872;4.312;2023-07-24T14:26:02;5.50;;;4.43;;
22111;SDS011;11222;50.872;4.312;2023-07-24T14:28:28;4.53;;;3.63;;
22111;SDS011;11222;50.872;4.312;2023-07-24T14:30:53;5.10;;;3.80;;
22111;SDS011;11222;50.872;4.312;2023-07-24T14:33:19;4.93;;;4.03;;
22111;SDS011;11222;50.872;4.312;2023-07-24T14:35:45;8.57;;;3.90;;
22111;SDS011;11222;50.872;4.312;2023-07-24T14:38:10;5.13;;;4.10;;
22111;SDS011;11222;50.872;4.312;2023-07-24T14:40:36;5.95;;;4.18;;
22111;SDS011;11222;50.872;4.312;2023-07-24T14:43:02;6.72;;;4.53;;
22111;SDS011;11222;50.872;4.312;2023-07-24T14:45:27;4.63;;;4.10;;
22111;SDS011;11222;50.872;4.312;2023-07-24T14:47:53;5.30;;;3.90;;